Time;durP1;ratioP1;P1;durP2;ratioP2;P2;SDS_P1;SDS_P2;PMS_P1;PMS_P2;Temp;Humidity;BMP_temperature;BMP_pressure;BME280_temperature;BME280_humidity;BME280_pressure;Samples;Min_cycle;Max_cycle;Signal;HPM_P1;HPM_P2
2022/01/24 00:00:02;;;;;;;;;;;;;;;;;;5014992;28;19972;-27
2022/01/24 00:02:29;;;;;;;;;;;;;;;;;;5014528;28;20041;-23
2022/01/24 00:04:57;;;;;;;;;;;;;;;;;;5014463;28;19953;-23
2022/01/24 00:07:24;;;;;;;;;;;;;;;;;;5014674;28;19910;-23
2022/01/24 00:09:53;;;;;;;;;;;;;;;;;;5014695;28;19924;-25
2022/01/24 00:12:29;;;;;;;;;;;;;;;;;;5015839;28;20004;-22
2022/01/24 00:15:22;;;;;;;;;;;;;;;;;;5018321;28;19913;-22
2022/01/24 00:18:05;;;;;;;;;;;;;;;;;;5018224;28;20034;-22
2022/01/24 00:28:31;;;;;;;;;;;;;;;;;;5018081;28;20107;-22
2022/01/24 00:30:59;;;;;;;;;;;;;;;;;;5018070;28;19914;-25
2022/01/24 00:33:25;;;;;;;;;;;;;;;;;;5018731;28;19920;-24
2022/01/24 00:35:52;;;;;;;;;;;;;;;;;;5017952;28;19914;-22
2022/01/24 00:38:19;;;;;;;;;;;;;;;;;;5017967;28;20348;-22
2022/01/24 00:40:47;;;;;;;;;;;;;;;;;;5017810;28;19914;-24
2022/01/24 00:57:02;;;;;;;;;;;;;;;;;;5003164;28;20229;-23
2022/01/24 00:59:28;;;;;;;;;;;;;;;;;;5018043;28;19917;-23
2022/01/24 01:01:55;;;;;;;;;;;;;;;;;;5017549;28;19940;-23
2022/01/24 01:04:25;;;;;;;;;;;;;;;;;;5017779;28;20372;-22
2022/01/24 01:06:53;;;;;;;;;;;;;;;;;;5017229;28;20256;-24
2022/01/24 01:20:25;;;;;;;;;;;;;;;;;;5017519;28;19925;-27
2022/01/24 01:22:52;;;;;;;;;;;;;;;;;;5016751;28;19925;-24
2022/01/24 01:25:18;;;;;;;;;;;;;;;;;;5016757;28;19997;-22
2022/01/24 01:27:46;;;;;;;;;;;;;;;;;;5016938;28;19917;-23
2022/01/24 01:30:21;;;;;;;;;;;;;;;;;;5017215;28;19916;-23
2022/01/24 01:33:09;;;;;;;;;;;;;;;;;;5015938;28;19913;-26
2022/01/24 01:54:56;;;;;;;;;;;;;;;;;;5016511;28;19961;-25
2022/01/24 01:57:22;;;;;;;;;;;;;;;;;;5016380;28;19933;-22
2022/01/24 01:59:49;;;;;;;;;;;;;;;;;;5016319;28;19953;-22
2022/01/24 02:02:15;;;;;;;;;;;;;;;;;;5016342;28;19914;-26
2022/01/24 02:04:42;;;;;;;;;;;;;;;;;;5015309;28;19921;-23
2022/01/24 02:07:08;;;;;;;;;;;;;;;;;;5016225;28;19910;-24
2022/01/24 02:09:34;;;;;;;;;;;;;;;;;;5016350;28;19914;-25
2022/01/24 02:12:02;;;;;;;;;;;;;;;;;;5016139;28;20361;-24
2022/01/24 02:14:35;;;;;;;;;;;;;;;;;;5016700;28;20353;-25
2022/01/24 02:17:06;;;;;;;;;;;;;;;;;;5016021;28;19921;-23
2022/01/24 02:24:58;;;;;;;;;;;;;;;;;;5016040;28;20132;-22
2022/01/24 02:27:28;;;;;;;;;;;;;;;;;;5016061;28;19971;-23
2022/01/24 02:32:56;;;;;;;;;;;;;;;;;;4993605;28;19925;-23
2022/01/24 02:35:22;;;;;;;;;;;;;;;;;;5015808;28;20244;-22
2022/01/24 02:37:48;;;;;;;;;;;;;;;;;;5015541;28;20268;-24
2022/01/24 02:40:18;;;;;;;;;;;;;;;;;;5015575;28;19956;-23
2022/01/24 02:48:30;;;;;;;;;;;;;;;;;;5015537;28;19924;-21
2022/01/24 02:53:33;;;;;;;;;;;;;;;;;;5015444;28;19913;-24
2022/01/24 02:56:01;;;;;;;;;;;;;;;;;;5015866;28;19910;-25
2022/01/24 02:58:27;;;;;;;;;;;;;;;;;;5014149;28;19917;-22
2022/01/24 03:00:53;;;;;;;;;;;;;;;;;;5015579;28;20315;-22
2022/01/24 03:03:20;;;;;;;;;;;;;;;;;;5015769;28;19949;-24
2022/01/24 03:05:46;;;;;;;;;;;;;;;;;;5015239;28;19999;-23
2022/01/24 03:08:14;;;;;;;;;;;;;;;;;;5015128;28;19996;-23
2022/01/24 03:10:44;;;;;;;;;;;;;;;;;;5015135;28;19968;-22
2022/01/24 03:15:52;;;;;;;;;;;;;;;;;;5015108;28;20004;-27
2022/01/24 03:18:18;;;;;;;;;;;;;;;;;;5014941;28;19913;-22
2022/01/24 03:20:45;;;;;;;;;;;;;;;;;;5013976;28;19914;-24
2022/01/24 03:23:13;;;;;;;;;;;;;;;;;;5014893;28;19929;-26
2022/01/24 03:25:39;;;;;;;;;;;;;;;;;;5015389;28;19996;-24
2022/01/24 03:28:07;;;;;;;;;;;;;;;;;;5015090;28;20083;-29
2022/01/24 03:30:33;;;;;;;;;;;;;;;;;;5014810;28;19914;-24
2022/01/24 03:32:59;;;;;;;;;;;;;;;;;;5013864;28;19910;-23
2022/01/24 03:35:25;;;;;;;;;;;;;;;;;;5015252;28;19914;-23
2022/01/24 03:37:51;;;;;;;;;;;;;;;;;;5014699;28;19928;-26
2022/01/24 03:40:19;;;;;;;;;;;;;;;;;;5015283;28;20440;-25
2022/01/24 03:42:47;;;;;;;;;;;;;;;;;;5014739;28;20024;-22
2022/01/24 03:45:14;;;;;;;;;;;;;;;;;;5014737;28;19914;-22
2022/01/24 03:47:57;;;;;;;;;;;;;;;;;;5019438;28;20021;-23
2022/01/24 03:50:24;;;;;;;;;;;;;;;;;;5020475;28;20340;-22
2022/01/24 03:52:51;;;;;;;;;;;;;;;;;;5021706;28;19927;-27
2022/01/24 03:55:18;;;;;;;;;;;;;;;;;;5021224;28;20390;-21
2022/01/24 03:57:44;;;;;;;;;;;;;;;;;;5021272;28;20216;-23
2022/01/24 04:00:10;;;;;;;;;;;;;;;;;;5021153;28;20000;-24
2022/01/24 04:02:36;;;;;;;;;;;;;;;;;;5021365;28;19913;-23
2022/01/24 04:05:03;;;;;;;;;;;;;;;;;;5021348;28;20360;-23
2022/01/24 04:07:31;;;;;;;;;;;;;;;;;;5021247;28;19924;-25
2022/01/24 04:10:02;;;;;;;;;;;;;;;;;;5020996;28;19924;-22
2022/01/24 04:12:28;;;;;;;;;;;;;;;;;;5021030;28;19940;-22
2022/01/24 04:15:06;;;;;;;;;;;;;;;;;;5021763;28;20024;-25
2022/01/24 04:17:45;;;;;;;;;;;;;;;;;;5021066;28;20309;-23
2022/01/24 04:23:00;;;;;;;;;;;;;;;;;;5020632;28;19932;-26
2022/01/24 04:25:26;;;;;;;;;;;;;;;;;;5020816;28;20340;-22
2022/01/24 04:27:52;;;;;;;;;;;;;;;;;;5021315;28;19909;-22
2022/01/24 04:30:19;;;;;;;;;;;;;;;;;;5020867;28;19925;-25
2022/01/24 04:32:45;;;;;;;;;;;;;;;;;;5020818;28;19914;-23
2022/01/24 04:35:11;;;;;;;;;;;;;;;;;;5021206;28;20340;-22
2022/01/24 04:37:37;;;;;;;;;;;;;;;;;;5020622;28;20337;-21
2022/01/24 04:40:03;;;;;;;;;;;;;;;;;;5020762;28;19944;-22
2022/01/24 04:42:45;;;;;;;;;;;;;;;;;;5021090;28;19910;-24
2022/01/24 04:45:29;;;;;;;;;;;;;;;;;;5020962;28;19918;-25
2022/01/24 04:51:04;;;;;;;;;;;;;;;;;;5020585;28;19948;-22
2022/01/24 04:56:03;;;;;;;;;;;;;;;;;;5020589;28;19952;-23
2022/01/24 04:58:30;;;;;;;;;;;;;;;;;;5018969;28;20012;-22
2022/01/24 05:03:32;;;;;;;;;;;;;;;;;;5243766;23;19930;-19
2022/01/24 05:05:58;;;;;;;;;;;;;;;;;;5017556;28;19920;-19
2022/01/24 05:08:25;;;;;;;;;;;;;;;;;;5017346;28;20347;-19
2022/01/24 05:10:59;;;;;;;;;;;;;;;;;;5017684;28;19913;-19
2022/01/24 05:24:07;;;;;;;;;;;;;;;;;;5017023;28;19914;-19
2022/01/24 05:26:33;;;;;;;;;;;;;;;;;;5017105;28;19924;-19
2022/01/24 05:29:00;;;;;;;;;;;;;;;;;;5016809;28;20344;-21
2022/01/24 05:31:26;;;;;;;;;;;;;;;;;;5016607;28;19970;-20
2022/01/24 05:33:52;;;;;;;;;;;;;;;;;;5016560;28;20355;-19
2022/01/24 05:36:18;;;;;;;;;;;;;;;;;;5016474;28;19917;-19
2022/01/24 05:38:45;;;;;;;;;;;;;;;;;;5017335;28;19924;-19
2022/01/24 05:41:11;;;;;;;;;;;;;;;;;;5016391;28;19925;-20
2022/01/24 05:46:28;;;;;;;;;;;;;;;;;;5016313;28;19928;-20
2022/01/24 05:48:54;;;;;;;;;;;;;;;;;;5016442;28;19913;-19
2022/01/24 05:51:23;;;;;;;;;;;;;;;;;;5016153;28;20332;-20
2022/01/24 05:53:49;;;;;;;;;;;;;;;;;;5016299;28;19913;-20
2022/01/24 05:56:15;;;;;;;;;;;;;;;;;;5016623;28;19961;-20
2022/01/24 05:58:42;;;;;;;;;;;;;;;;;;5016272;28;20008;-19
2022/01/24 06:01:09;;;;;;;;;;;;;;;;;;5016000;28;19913;-20
2022/01/24 06:03:37;;;;;;;;;;;;;;;;;;5019799;28;19921;-19
2022/01/24 06:06:03;;;;;;;;;;;;;;;;;;5014901;28;20259;-20
2022/01/24 06:08:29;;;;;;;;;;;;;;;;;;5014877;28;20252;-19
2022/01/24 06:10:58;;;;;;;;;;;;;;;;;;5015872;28;19913;-19
2022/01/24 06:13:26;;;;;;;;;;;;;;;;;;5015687;28;19913;-21
2022/01/24 06:15:53;;;;;;;;;;;;;;;;;;5016010;28;20332;-19
2022/01/24 06:18:21;;;;;;;;;;;;;;;;;;5015818;28;20352;-19
2022/01/24 06:20:50;;;;;;;;;;;;;;;;;;5016293;28;19913;-20
2022/01/24 06:23:18;;;;;;;;;;;;;;;;;;5015809;28;19913;-20
2022/01/24 06:25:44;;;;;;;;;;;;;;;;;;5016314;28;19920;-20
2022/01/24 06:28:11;;;;;;;;;;;;;;;;;;5015792;28;20225;-19
2022/01/24 06:30:37;;;;;;;;;;;;;;;;;;5015525;28;19914;-19
2022/01/24 06:33:04;;;;;;;;;;;;;;;;;;5014556;28;19909;-19
2022/01/24 06:35:31;;;;;;;;;;;;;;;;;;5015549;28;19921;-19
2022/01/24 06:37:57;;;;;;;;;;;;;;;;;;5015823;28;20272;-19
2022/01/24 06:40:24;;;;;;;;;;;;;;;;;;5015359;28;20008;-19
2022/01/24 06:42:50;;;;;;;;;;;;;;;;;;5015298;28;20378;-19
2022/01/24 06:45:16;;;;;;;;;;;;;;;;;;5015790;28;19913;-19
2022/01/24 06:47:44;;;;;;;;;;;;;;;;;;5015189;28;19978;-20
2022/01/24 06:50:10;;;;;;;;;;;;;;;;;;5015579;28;19916;-19
2022/01/24 06:52:36;;;;;;;;;;;;;;;;;;5014959;28;19914;-20
2022/01/24 06:55:04;;;;;;;;;;;;;;;;;;5015838;28;20247;-20
2022/01/24 06:57:30;;;;;;;;;;;;;;;;;;5016160;28;19914;-20
2022/01/24 06:59:56;;;;;;;;;;;;;;;;;;5015153;28;19918;-20
2022/01/24 07:02:22;;;;;;;;;;;;;;;;;;5015358;28;19940;-20
2022/01/24 07:04:49;;;;;;;;;;;;;;;;;;5014673;28;20012;-19
2022/01/24 07:07:16;;;;;;;;;;;;;;;;;;5015408;28;20220;-19
2022/01/24 07:09:42;;;;;;;;;;;;;;;;;;5014713;28;19914;-19
2022/01/24 07:12:10;;;;;;;;;;;;;;;;;;5012936;28;20320;-19
2022/01/24 07:14:39;;;;;;;;;;;;;;;;;;5013206;28;20303;-21
2022/01/24 07:19:32;;;;;;;;;;;;;;;;;;5014322;28;19918;-19
2022/01/24 07:21:58;;;;;;;;;;;;;;;;;;5013347;28;20344;-19
2022/01/24 07:24:24;;;;;;;;;;;;;;;;;;5014201;28;20225;-21
2022/01/24 07:26:51;;;;;;;;;;;;;;;;;;5014701;28;19960;-19
2022/01/24 07:29:17;;;;;;;;;;;;;;;;;;5013167;28;20007;-20
2022/01/24 07:31:46;;;;;;;;;;;;;;;;;;5014829;28;19920;-19
2022/01/24 07:34:14;;;;;;;;;;;;;;;;;;5014133;28;19913;-19
2022/01/24 07:36:40;;;;;;;;;;;;;;;;;;5014108;28;20355;-19
2022/01/24 07:39:06;;;;;;;;;;;;;;;;;;5015150;28;19924;-20
2022/01/24 07:41:42;;;;;;;;;;;;;;;;;;5013618;28;19914;-19
2022/01/24 07:44:08;;;;;;;;;;;;;;;;;;5015043;28;19940;-19
2022/01/24 07:46:36;;;;;;;;;;;;;;;;;;5013618;28;20367;-19
2022/01/24 07:49:04;;;;;;;;;;;;;;;;;;5014949;28;19929;-19
2022/01/24 07:51:30;;;;;;;;;;;;;;;;;;5013286;28;19936;-18
2022/01/24 07:53:59;;;;;;;;;;;;;;;;;;5014226;28;20020;-19
2022/01/24 07:56:25;;;;;;;;;;;;;;;;;;5014415;28;19914;-19
2022/01/24 07:58:51;;;;;;;;;;;;;;;;;;5014465;28;20323;-24
2022/01/24 08:01:17;;;;;;;;;;;;;;;;;;5013339;28;19910;-18
2022/01/24 08:03:44;;;;;;;;;;;;;;;;;;5014288;28;20238;-19
2022/01/24 08:06:11;;;;;;;;;;;;;;;;;;5014338;28;19913;-19
2022/01/24 08:08:37;;;;;;;;;;;;;;;;;;5014380;28;20019;-19
2022/01/24 08:11:03;;;;;;;;;;;;;;;;;;5013292;28;19924;-18
2022/01/24 08:13:32;;;;;;;;;;;;;;;;;;5014213;28;19914;-18
2022/01/24 08:15:58;;;;;;;;;;;;;;;;;;5014621;28;19929;-19
2022/01/24 08:18:25;;;;;;;;;;;;;;;;;;5014245;28;19913;-19
2022/01/24 08:20:51;;;;;;;;;;;;;;;;;;5013231;28;19918;-20
2022/01/24 08:23:19;;;;;;;;;;;;;;;;;;5013934;28;19959;-20
2022/01/24 08:25:45;;;;;;;;;;;;;;;;;;5014103;28;19924;-20
2022/01/24 08:28:13;;;;;;;;;;;;;;;;;;5014018;28;19920;-20
2022/01/24 08:30:40;;;;;;;;;;;;;;;;;;5014075;28;20000;-20
2022/01/24 08:33:07;;;;;;;;;;;;;;;;;;5015106;28;19910;-20
2022/01/24 08:35:33;;;;;;;;;;;;;;;;;;5018068;28;19964;-19
2022/01/24 08:37:59;;;;;;;;;;;;;;;;;;5018411;28;19913;-19
2022/01/24 08:40:28;;;;;;;;;;;;;;;;;;5017928;28;20008;-20
2022/01/24 08:43:02;;;;;;;;;;;;;;;;;;5017699;28;19920;-18
2022/01/24 08:48:13;;;;;;;;;;;;;;;;;;5017708;28;19956;-19
2022/01/24 08:50:40;;;;;;;;;;;;;;;;;;5017407;28;20336;-18
2022/01/24 08:53:06;;;;;;;;;;;;;;;;;;5017479;28;20011;-19
2022/01/24 08:55:32;;;;;;;;;;;;;;;;;;5016624;28;20237;-18
2022/01/24 08:57:58;;;;;;;;;;;;;;;;;;5017266;28;19917;-18
2022/01/24 09:00:24;;;;;;;;;;;;;;;;;;5016146;28;19924;-19
2022/01/24 09:02:51;;;;;;;;;;;;;;;;;;5017159;28;20060;-17
2022/01/24 09:05:19;;;;;;;;;;;;;;;;;;5017065;28;19922;-18
2022/01/24 09:07:45;;;;;;;;;;;;;;;;;;5017234;28;19913;-18
2022/01/24 09:10:13;;;;;;;;;;;;;;;;;;5016270;28;19924;-18
2022/01/24 09:12:39;;;;;;;;;;;;;;;;;;5016815;28;20232;-18
2022/01/24 09:15:05;;;;;;;;;;;;;;;;;;5015776;28;19909;-18
2022/01/24 09:17:34;;;;;;;;;;;;;;;;;;5017133;28;19924;-19
2022/01/24 09:20:03;;;;;;;;;;;;;;;;;;5016745;28;20015;-19
2022/01/24 09:22:29;;;;;;;;;;;;;;;;;;5016745;28;19936;-19
2022/01/24 09:24:57;;;;;;;;;;;;;;;;;;5016658;28;19920;-18
2022/01/24 09:27:24;;;;;;;;;;;;;;;;;;5017243;28;19925;-19
2022/01/24 09:29:51;;;;;;;;;;;;;;;;;;5016827;28;19909;-19
2022/01/24 09:32:17;;;;;;;;;;;;;;;;;;5017221;28;20304;-19
2022/01/24 09:34:44;;;;;;;;;;;;;;;;;;5015799;28;20301;-19
2022/01/24 09:37:10;;;;;;;;;;;;;;;;;;5016558;28;19913;-18
2022/01/24 09:39:39;;;;;;;;;;;;;;;;;;5015273;28;19925;-19
2022/01/24 09:42:07;;;;;;;;;;;;;;;;;;5016769;28;20312;-19
2022/01/24 09:44:34;;;;;;;;;;;;;;;;;;5016118;28;19965;-19
2022/01/24 09:47:00;;;;;;;;;;;;;;;;;;5015997;28;19913;-19
2022/01/24 09:49:27;;;;;;;;;;;;;;;;;;5016612;28;19931;-19
2022/01/24 09:51:53;;;;;;;;;;;;;;;;;;5016132;28;19939;-19
2022/01/24 09:54:19;;;;;;;;;;;;;;;;;;5016179;28;20000;-19
2022/01/24 09:56:45;;;;;;;;;;;;;;;;;;5016287;28;19920;-19
2022/01/24 09:59:13;;;;;;;;;;;;;;;;;;5016071;28;19917;-19
2022/01/24 10:01:42;;;;;;;;;;;;;;;;;;5015880;28;19914;-18
2022/01/24 10:04:08;;;;;;;;;;;;;;;;;;5015869;28;19956;-18
2022/01/24 10:06:36;;;;;;;;;;;;;;;;;;5015711;28;19937;-19
2022/01/24 10:09:03;;;;;;;;;;;;;;;;;;5015505;28;19914;-18
2022/01/24 10:11:29;;;;;;;;;;;;;;;;;;5016010;28;19913;-19
2022/01/24 10:16:45;;;;;;;;;;;;;;;;;;5015667;28;20015;-19
2022/01/24 10:19:11;;;;;;;;;;;;;;;;;;5015077;28;19917;-18
2022/01/24 10:21:37;;;;;;;;;;;;;;;;;;5013962;28;20007;-18
2022/01/24 10:24:03;;;;;;;;;;;;;;;;;;5015383;28;19976;-19
2022/01/24 10:26:29;;;;;;;;;;;;;;;;;;5016062;28;19910;-19
2022/01/24 10:28:57;;;;;;;;;;;;;;;;;;5014495;28;19968;-18
2022/01/24 10:31:28;;;;;;;;;;;;;;;;;;5014410;28;19913;-19
2022/01/24 10:34:01;;;;;;;;;;;;;;;;;;5014370;28;19909;-19
2022/01/24 10:36:29;;;;;;;;;;;;;;;;;;5015413;28;19914;-18
2022/01/24 10:38:56;;;;;;;;;;;;;;;;;;5015548;28;20009;-18
2022/01/24 10:41:25;;;;;;;;;;;;;;;;;;5016038;28;19937;-18
2022/01/24 10:43:55;;;;;;;;;;;;;;;;;;5015347;28;19933;-19
2022/01/24 10:46:22;;;;;;;;;;;;;;;;;;5015423;28;19940;-19
2022/01/24 10:48:53;;;;;;;;;;;;;;;;;;5014412;28;19921;-19
2022/01/24 10:51:21;;;;;;;;;;;;;;;;;;5015736;28;19913;-19
2022/01/24 10:53:47;;;;;;;;;;;;;;;;;;5015403;28;19928;-20
2022/01/24 10:56:14;;;;;;;;;;;;;;;;;;5015252;28;19913;-19
2022/01/24 10:58:42;;;;;;;;;;;;;;;;;;5015145;28;19918;-18
2022/01/24 11:01:08;;;;;;;;;;;;;;;;;;5015140;28;19999;-18
2022/01/24 11:03:35;;;;;;;;;;;;;;;;;;5014897;28;19931;-19
2022/01/24 11:06:02;;;;;;;;;;;;;;;;;;5014300;28;20379;-18
2022/01/24 11:08:30;;;;;;;;;;;;;;;;;;5014371;28;19918;-19
2022/01/24 11:10:57;;;;;;;;;;;;;;;;;;5015455;28;20004;-19
2022/01/24 11:13:30;;;;;;;;;;;;;;;;;;5015077;28;19909;-18
2022/01/24 11:16:00;;;;;;;;;;;;;;;;;;5014958;28;19964;-19
2022/01/24 11:18:28;;;;;;;;;;;;;;;;;;5014721;28;20245;-18
2022/01/24 11:21:05;;;;;;;;;;;;;;;;;;5015017;28;20324;-18
2022/01/24 11:23:31;;;;;;;;;;;;;;;;;;5014860;28;19948;-18
2022/01/24 11:26:01;;;;;;;;;;;;;;;;;;5014983;28;19924;-19
2022/01/24 11:28:30;;;;;;;;;;;;;;;;;;5014847;28;20004;-19
2022/01/24 11:30:58;;;;;;;;;;;;;;;;;;5015055;28;20238;-19
2022/01/24 11:33:24;;;;;;;;;;;;;;;;;;5014660;28;20016;-19
2022/01/24 11:35:53;;;;;;;;;;;;;;;;;;5014950;28;19917;-19
2022/01/24 11:38:22;;;;;;;;;;;;;;;;;;5015193;28;20009;-21
2022/01/24 11:40:54;;;;;;;;;;;;;;;;;;5014265;28;19975;-20
2022/01/24 11:43:24;;;;;;;;;;;;;;;;;;5013303;28;19916;-18
2022/01/24 11:46:00;;;;;;;;;;;;;;;;;;5013556;28;19913;-19
2022/01/24 11:48:26;;;;;;;;;;;;;;;;;;5014744;28;19916;-19
2022/01/24 11:50:53;;;;;;;;;;;;;;;;;;5014396;28;19924;-19
2022/01/24 11:53:20;;;;;;;;;;;;;;;;;;5014603;28;19916;-18
2022/01/24 11:55:46;;;;;;;;;;;;;;;;;;5014854;28;19953;-19
2022/01/24 11:58:12;;;;;;;;;;;;;;;;;;5014923;28;19929;-18
2022/01/24 12:00:39;;;;;;;;;;;;;;;;;;5014775;28;19971;-19
2022/01/24 12:03:07;;;;;;;;;;;;;;;;;;5014264;28;20276;-19
2022/01/24 12:05:33;;;;;;;;;;;;;;;;;;5013919;28;19953;-19
2022/01/24 12:07:59;;;;;;;;;;;;;;;;;;5015052;28;19913;-18
2022/01/24 12:10:34;;;;;;;;;;;;;;;;;;5018537;28;19948;-19
2022/01/24 12:13:02;;;;;;;;;;;;;;;;;;5017876;28;19910;-18
2022/01/24 12:15:29;;;;;;;;;;;;;;;;;;5017747;28;19914;-19
2022/01/24 12:18:01;;;;;;;;;;;;;;;;;;5016519;28;20268;-19
2022/01/24 12:20:29;;;;;;;;;;;;;;;;;;5017526;28;19976;-20
2022/01/24 12:22:55;;;;;;;;;;;;;;;;;;5018442;28;19920;-20
2022/01/24 12:25:21;;;;;;;;;;;;;;;;;;5018081;28;19917;-18
2022/01/24 12:27:47;;;;;;;;;;;;;;;;;;5018096;28;20003;-19
2022/01/24 12:30:13;;;;;;;;;;;;;;;;;;5018666;28;19913;-18
2022/01/24 12:32:40;;;;;;;;;;;;;;;;;;5017130;28;19925;-19
2022/01/24 12:35:06;;;;;;;;;;;;;;;;;;5018774;28;19913;-18
2022/01/24 12:37:34;;;;;;;;;;;;;;;;;;5018080;28;19920;-19
2022/01/24 12:40:03;;;;;;;;;;;;;;;;;;5018541;28;20359;-20
2022/01/24 12:42:36;;;;;;;;;;;;;;;;;;5017742;28;19914;-21
2022/01/24 12:47:47;;;;;;;;;;;;;;;;;;5018431;28;20047;-19
2022/01/24 12:50:15;;;;;;;;;;;;;;;;;;5017850;28;19914;-19
2022/01/24 12:52:41;;;;;;;;;;;;;;;;;;5017784;28;19992;-18
2022/01/24 12:55:07;;;;;;;;;;;;;;;;;;5017507;28;19917;-19
2022/01/24 12:57:39;;;;;;;;;;;;;;;;;;5017678;28;19940;-19
2022/01/24 13:00:09;;;;;;;;;;;;;;;;;;5018118;28;20286;-20
2022/01/24 13:02:39;;;;;;;;;;;;;;;;;;5017547;28;19953;-18
2022/01/24 13:05:05;;;;;;;;;;;;;;;;;;5017205;28;19931;-18
2022/01/24 13:07:31;;;;;;;;;;;;;;;;;;5017657;28;19952;-19
2022/01/24 13:09:59;;;;;;;;;;;;;;;;;;5017622;28;20368;-19
2022/01/24 13:12:28;;;;;;;;;;;;;;;;;;5016419;28;19916;-19
2022/01/24 13:14:58;;;;;;;;;;;;;;;;;;5016445;28;19968;-19
2022/01/24 13:22:59;;;;;;;;;;;;;;;;;;5017232;28;20012;-19
2022/01/24 13:25:26;;;;;;;;;;;;;;;;;;5017334;28;19921;-19
2022/01/24 13:27:53;;;;;;;;;;;;;;;;;;5017340;28;19914;-19
2022/01/24 13:30:24;;;;;;;;;;;;;;;;;;5016820;28;19914;-18
2022/01/24 13:32:51;;;;;;;;;;;;;;;;;;5015657;28;19921;-18
2022/01/24 13:35:17;;;;;;;;;;;;;;;;;;5016873;28;19920;-18
2022/01/24 13:37:45;;;;;;;;;;;;;;;;;;5017180;28;20179;-18
2022/01/24 13:40:11;;;;;;;;;;;;;;;;;;5017246;28;19918;-19
2022/01/24 13:42:37;;;;;;;;;;;;;;;;;;5016581;28;19937;-19
2022/01/24 13:45:03;;;;;;;;;;;;;;;;;;5015583;28;20402;-19
2022/01/24 13:47:29;;;;;;;;;;;;;;;;;;5017151;28;19928;-19
2022/01/24 13:49:57;;;;;;;;;;;;;;;;;;5016630;28;19913;-19
2022/01/24 13:52:24;;;;;;;;;;;;;;;;;;5016374;28;19959;-19
2022/01/24 13:54:51;;;;;;;;;;;;;;;;;;5016612;28;19910;-19
2022/01/24 13:57:17;;;;;;;;;;;;;;;;;;5015311;28;19921;-20
2022/01/24 13:59:43;;;;;;;;;;;;;;;;;;5016190;28;19921;-17
2022/01/24 14:02:10;;;;;;;;;;;;;;;;;;5016173;28;20000;-19
2022/01/24 14:04:36;;;;;;;;;;;;;;;;;;5015260;28;20252;-17
2022/01/24 14:07:03;;;;;;;;;;;;;;;;;;5016888;28;19913;-17
2022/01/24 14:09:30;;;;;;;;;;;;;;;;;;5016433;28;19914;-17
2022/01/24 14:11:57;;;;;;;;;;;;;;;;;;5016290;28;19917;-17
2022/01/24 14:14:23;;;;;;;;;;;;;;;;;;5016517;28;19909;-20
2022/01/24 14:17:05;;;;;;;;;;;;;;;;;;5015175;28;19917;-19
2022/01/24 14:19:33;;;;;;;;;;;;;;;;;;5016081;28;19917;-19
2022/01/24 14:22:01;;;;;;;;;;;;;;;;;;5015208;28;20004;-18
2022/01/24 14:24:27;;;;;;;;;;;;;;;;;;5016189;28;19916;-19
2022/01/24 14:26:55;;;;;;;;;;;;;;;;;;5014850;28;20351;-18
2022/01/24 14:29:24;;;;;;;;;;;;;;;;;;5016624;28;19909;-19
2022/01/24 14:31:52;;;;;;;;;;;;;;;;;;5014492;28;19924;-19
2022/01/24 14:34:18;;;;;;;;;;;;;;;;;;5015940;28;19944;-19
2022/01/24 14:36:46;;;;;;;;;;;;;;;;;;5016035;28;19964;-19
2022/01/24 14:39:12;;;;;;;;;;;;;;;;;;5015758;28;20292;-19
2022/01/24 14:41:44;;;;;;;;;;;;;;;;;;5015869;28;20319;-19
2022/01/24 14:46:58;;;;;;;;;;;;;;;;;;5016107;28;19948;-18
2022/01/24 14:49:27;;;;;;;;;;;;;;;;;;5015587;28;19921;-20
2022/01/24 14:51:58;;;;;;;;;;;;;;;;;;5016038;28;19913;-19
2022/01/24 14:54:24;;;;;;;;;;;;;;;;;;5015698;28;19921;-18
2022/01/24 14:56:50;;;;;;;;;;;;;;;;;;5015603;28;19916;-19
2022/01/24 14:59:16;;;;;;;;;;;;;;;;;;5015491;28;19917;-19
2022/01/24 15:01:42;;;;;;;;;;;;;;;;;;5015646;28;19922;-19
2022/01/24 15:04:12;;;;;;;;;;;;;;;;;;5015185;28;19929;-19
2022/01/24 15:06:41;;;;;;;;;;;;;;;;;;5015894;28;20004;-19
2022/01/24 15:09:09;;;;;;;;;;;;;;;;;;5015238;28;19913;-18
2022/01/24 15:11:36;;;;;;;;;;;;;;;;;;5015228;28;19917;-19
2022/01/24 15:14:10;;;;;;;;;;;;;;;;;;5015198;28;19917;-26
2022/01/24 15:16:48;;;;;;;;;;;;;;;;;;5015551;28;20297;-20
2022/01/24 15:27:14;;;;;;;;;;;;;;;;;;5014953;28;19971;-19
2022/01/24 15:29:40;;;;;;;;;;;;;;;;;;5015761;28;19910;-19
2022/01/24 15:32:06;;;;;;;;;;;;;;;;;;5015063;28;19913;-19
2022/01/24 15:34:35;;;;;;;;;;;;;;;;;;5015608;28;20307;-19
2022/01/24 15:37:01;;;;;;;;;;;;;;;;;;5014942;28;19957;-18
2022/01/24 15:39:30;;;;;;;;;;;;;;;;;;5015004;28;19918;-19
2022/01/24 15:42:04;;;;;;;;;;;;;;;;;;5014702;28;19921;-18
2022/01/24 15:47:03;;;;;;;;;;;;;;;;;;5014763;28;20301;-18
2022/01/24 15:49:31;;;;;;;;;;;;;;;;;;5014723;28;19913;-18
2022/01/24 15:51:57;;;;;;;;;;;;;;;;;;5015248;28;20242;-18
2022/01/24 15:54:26;;;;;;;;;;;;;;;;;;5014651;28;19928;-19
2022/01/24 15:59:38;;;;;;;;;;;;;;;;;;5014819;28;19928;-18
2022/01/24 16:02:04;;;;;;;;;;;;;;;;;;5014393;28;20353;-19
2022/01/24 16:04:32;;;;;;;;;;;;;;;;;;5013025;28;19921;-20
2022/01/24 16:07:01;;;;;;;;;;;;;;;;;;5013382;28;19917;-18
2022/01/24 16:09:28;;;;;;;;;;;;;;;;;;5014534;28;20308;-18
2022/01/24 16:11:55;;;;;;;;;;;;;;;;;;5014350;28;19920;-19
2022/01/24 16:14:21;;;;;;;;;;;;;;;;;;5014321;28;19917;-18
2022/01/24 16:16:48;;;;;;;;;;;;;;;;;;5014717;28;20004;-18
2022/01/24 16:19:19;;;;;;;;;;;;;;;;;;5014194;28;20360;-19
2022/01/24 16:21:58;;;;;;;;;;;;;;;;;;5014279;28;19909;-18
2022/01/24 16:26:58;;;;;;;;;;;;;;;;;;5014319;28;19918;-19
2022/01/24 16:29:24;;;;;;;;;;;;;;;;;;5013198;28;20302;-19
2022/01/24 16:31:50;;;;;;;;;;;;;;;;;;5014159;28;19909;-19
2022/01/24 16:34:18;;;;;;;;;;;;;;;;;;5014232;28;19925;-17
2022/01/24 16:36:45;;;;;;;;;;;;;;;;;;5014247;28;19910;-19
2022/01/24 16:39:15;;;;;;;;;;;;;;;;;;5014376;28;19947;-19
2022/01/24 16:41:50;;;;;;;;;;;;;;;;;;5013147;28;20311;-19
2022/01/24 16:49:32;;;;;;;;;;;;;;;;;;5014387;28;20308;-19
2022/01/24 16:52:00;;;;;;;;;;;;;;;;;;5014334;28;20004;-19
2022/01/24 16:54:28;;;;;;;;;;;;;;;;;;5014706;28;20000;-19
2022/01/24 16:56:54;;;;;;;;;;;;;;;;;;5018255;28;19910;-19
2022/01/24 16:59:22;;;;;;;;;;;;;;;;;;5018152;28;19918;-19
2022/01/24 17:01:48;;;;;;;;;;;;;;;;;;5017518;28;20268;-18
2022/01/24 17:04:15;;;;;;;;;;;;;;;;;;5016353;28;20368;-18
2022/01/24 17:06:44;;;;;;;;;;;;;;;;;;5017633;28;20008;-18
2022/01/24 17:09:13;;;;;;;;;;;;;;;;;;5017185;28;20210;-19
2022/01/24 17:11:43;;;;;;;;;;;;;;;;;;5017553;28;19909;-19
2022/01/24 17:14:11;;;;;;;;;;;;;;;;;;5017342;28;20012;-18
2022/01/24 17:16:38;;;;;;;;;;;;;;;;;;5017549;28;19937;-17
2022/01/24 17:19:04;;;;;;;;;;;;;;;;;;5017945;28;19918;-19
2022/01/24 17:21:30;;;;;;;;;;;;;;;;;;5017479;28;19914;-19
2022/01/24 17:23:59;;;;;;;;;;;;;;;;;;5017422;28;19924;-18
2022/01/24 17:26:27;;;;;;;;;;;;;;;;;;5017884;28;19925;-18
2022/01/24 17:28:53;;;;;;;;;;;;;;;;;;5017545;28;19917;-18
2022/01/24 17:31:20;;;;;;;;;;;;;;;;;;5017462;28;19917;-19
2022/01/24 17:33:47;;;;;;;;;;;;;;;;;;5017185;28;20261;-18
2022/01/24 17:36:13;;;;;;;;;;;;;;;;;;5017689;28;19960;-18
2022/01/24 17:38:39;;;;;;;;;;;;;;;;;;5016978;28;19917;-19
2022/01/24 17:41:05;;;;;;;;;;;;;;;;;;5017125;28;20237;-19
2022/01/24 17:43:33;;;;;;;;;;;;;;;;;;5017316;28;19999;-18
2022/01/24 17:45:59;;;;;;;;;;;;;;;;;;5016873;28;19996;-18
2022/01/24 17:48:26;;;;;;;;;;;;;;;;;;5015658;28;19910;-19
2022/01/24 17:50:53;;;;;;;;;;;;;;;;;;5016618;28;20276;-19
2022/01/24 17:53:20;;;;;;;;;;;;;;;;;;5015894;28;20375;-17
2022/01/24 17:55:46;;;;;;;;;;;;;;;;;;5016777;28;19913;-19
2022/01/24 17:58:14;;;;;;;;;;;;;;;;;;5016732;28;19968;-19
2022/01/24 18:00:42;;;;;;;;;;;;;;;;;;5017014;28;19909;-18
2022/01/24 18:03:08;;;;;;;;;;;;;;;;;;5016586;28;19913;-17
2022/01/24 18:05:36;;;;;;;;;;;;;;;;;;5015539;28;19975;-19
2022/01/24 18:08:03;;;;;;;;;;;;;;;;;;5017116;28;19914;-19
2022/01/24 18:10:29;;;;;;;;;;;;;;;;;;5015565;28;19972;-19
2022/01/24 18:12:58;;;;;;;;;;;;;;;;;;5016427;28;19924;-19
2022/01/24 18:15:25;;;;;;;;;;;;;;;;;;5016003;28;20226;-19
2022/01/24 18:17:51;;;;;;;;;;;;;;;;;;5016272;28;19909;-19
2022/01/24 18:20:17;;;;;;;;;;;;;;;;;;5016622;28;19917;-19
2022/01/24 18:22:44;;;;;;;;;;;;;;;;;;5016010;28;19913;-19
2022/01/24 18:25:11;;;;;;;;;;;;;;;;;;5016743;28;19956;-20
2022/01/24 18:27:39;;;;;;;;;;;;;;;;;;5016178;28;19913;-19
2022/01/24 18:30:05;;;;;;;;;;;;;;;;;;5016518;28;19914;-18
2022/01/24 18:32:32;;;;;;;;;;;;;;;;;;5015985;28;19910;-19
2022/01/24 18:34:58;;;;;;;;;;;;;;;;;;5016304;28;19913;-19
2022/01/24 18:37:25;;;;;;;;;;;;;;;;;;5015751;28;19914;-19
2022/01/24 18:39:52;;;;;;;;;;;;;;;;;;5014565;28;19944;-19
2022/01/24 18:42:22;;;;;;;;;;;;;;;;;;5014366;28;19926;-19
2022/01/24 18:44:50;;;;;;;;;;;;;;;;;;5015438;28;19932;-19
2022/01/24 18:47:17;;;;;;;;;;;;;;;;;;5015363;28;19941;-20
2022/01/24 18:49:44;;;;;;;;;;;;;;;;;;5014359;28;19972;-18
2022/01/24 18:52:11;;;;;;;;;;;;;;;;;;5015820;28;19913;-18
2022/01/24 18:54:37;;;;;;;;;;;;;;;;;;5015299;28;19933;-18
2022/01/24 18:57:04;;;;;;;;;;;;;;;;;;5015319;28;19913;-19
2022/01/24 18:59:30;;;;;;;;;;;;;;;;;;5015591;28;19914;-17
2022/01/24 19:01:59;;;;;;;;;;;;;;;;;;5015127;28;20000;-18
2022/01/24 19:04:25;;;;;;;;;;;;;;;;;;5014876;28;20005;-18